createdAt,value
2017-11-03T00:02:02.078Z,113.23
2017-11-03T00:04:30.335Z,127.83
2017-11-03T00:06:57.808Z,109.97
2017-11-03T00:09:25.296Z,114.23
2017-11-03T00:11:53.527Z,122.50
2017-11-03T00:14:20.991Z,113.17
2017-11-03T00:16:48.483Z,115.07
2017-11-03T00:19:16.719Z,114.47
2017-11-03T00:21:44.187Z,129.33
2017-11-03T00:24:13.183Z,120.87
2017-11-03T00:26:40.661Z,121.93
2017-11-03T00:29:08.914Z,128.47
2017-11-03T00:31:36.371Z,132.47
2017-11-03T00:34:04.636Z,120.10
2017-11-03T00:36:32.119Z,117.67
2017-11-03T00:38:59.573Z,125.23
2017-11-03T00:41:27.815Z,111.63
2017-11-03T00:43:55.276Z,108.57
2017-11-03T00:46:22.755Z,111.20
2017-11-03T00:48:50.223Z,112.67
2017-11-03T00:51:18.475Z,111.33
2017-11-03T00:53:45.935Z,117.37
2017-11-03T00:56:13.399Z,115.63
2017-11-03T00:58:40.883Z,121.87
2017-11-03T01:01:08.348Z,113.00
2017-11-03T01:03:35.844Z,122.27
2017-11-03T01:06:03.326Z,117.03
2017-11-03T01:08:31.555Z,110.80
2017-11-03T01:10:59.036Z,125.60
2017-11-03T01:13:26.516Z,113.00
2017-11-03T01:15:53.975Z,126.67
2017-11-03T01:18:22.231Z,126.60
2017-11-03T01:20:49.704Z,122.27
2017-11-03T01:23:17.192Z,138.70
2017-11-03T01:25:44.655Z,117.00
2017-11-03T01:28:12.143Z,111.13
2017-11-03T01:30:39.620Z,124.97
2017-11-03T01:33:07.084Z,137.73
2017-11-03T01:35:34.589Z,116.30
2017-11-03T01:38:02.048Z,131.10
2017-11-03T01:40:29.507Z,118.43
2017-11-03T01:42:56.987Z,118.00
2017-11-03T01:45:24.455Z,123.67
2017-11-03T01:47:51.931Z,124.30
2017-11-03T01:50:20.167Z,129.53
2017-11-03T01:52:47.659Z,133.20
2017-11-03T01:55:15.882Z,126.97
2017-11-03T01:57:43.355Z,123.00
2017-11-03T02:00:10.837Z,125.47
2017-11-03T02:02:38.303Z,131.90
2017-11-03T02:05:05.780Z,126.47
2017-11-03T02:07:34.019Z,131.73
2017-11-03T02:10:01.491Z,127.70
2017-11-03T02:12:28.979Z,125.53
2017-11-03T02:14:56.440Z,114.87
2017-11-03T02:17:23.940Z,129.20
2017-11-03T02:19:51.407Z,136.50
2017-11-03T02:22:18.868Z,126.37
2017-11-03T02:24:46.356Z,131.57
2017-11-03T02:27:13.821Z,130.17
2017-11-03T02:29:41.315Z,123.83
2017-11-03T02:32:08.783Z,121.20
2017-11-03T02:34:36.247Z,122.47
2017-11-03T02:37:03.757Z,123.90
2017-11-03T02:39:31.211Z,119.57
2017-11-03T02:41:58.689Z,124.13
2017-11-03T02:44:26.155Z,113.97
2017-11-03T02:46:53.616Z,109.17
2017-11-03T02:49:21.095Z,116.60
2017-11-03T02:51:48.571Z,112.93
2017-11-03T02:54:16.817Z,116.77
2017-11-03T02:56:44.293Z,109.40
2017-11-03T02:59:12.515Z,114.80
2017-11-03T03:01:39.992Z,115.73
2017-11-03T03:04:07.475Z,128.53
2017-11-03T03:06:35.730Z,132.23
2017-11-03T03:09:03.214Z,124.37
2017-11-03T03:11:31.445Z,125.40
2017-11-03T03:13:58.925Z,121.37
2017-11-03T03:16:26.398Z,123.57
2017-11-03T03:18:54.641Z,118.67
2017-11-03T03:21:22.127Z,107.37
2017-11-03T03:23:50.365Z,108.93
2017-11-03T03:26:17.851Z,109.67
2017-11-03T03:28:45.317Z,118.17
2017-11-03T03:31:12.797Z,106.50
2017-11-03T03:33:40.267Z,111.03
2017-11-03T03:36:07.747Z,123.57
2017-11-03T03:38:35.242Z,122.57
2017-11-03T03:41:02.703Z,111.73
2017-11-03T03:43:30.928Z,115.67
2017-11-03T03:45:58.418Z,113.30
2017-11-03T03:48:25.899Z,102.07
2017-11-03T03:50:54.126Z,107.63
2017-11-03T03:53:21.608Z,110.97
2017-11-03T03:55:49.852Z,108.87
2017-11-03T03:58:17.332Z,117.27
2017-11-03T04:00:45.563Z,116.43
2017-11-03T04:03:13.028Z,101.00
2017-11-03T04:05:40.504Z,96.90
2017-11-03T04:08:07.968Z,98.10
2017-11-03T04:10:35.428Z,98.33
2017-11-03T04:13:03.671Z,99.40
2017-11-03T04:15:31.143Z,96.27
2017-11-03T04:17:58.603Z,104.00
2017-11-03T04:20:26.080Z,102.97
2017-11-03T04:22:54.323Z,84.07
2017-11-03T04:25:21.783Z,95.03
2017-11-03T04:27:49.320Z,83.40
2017-11-03T04:30:16.791Z,91.23
2017-11-03T04:32:44.247Z,85.40
2017-11-03T04:35:11.713Z,91.20
2017-11-03T04:37:39.327Z,99.53
2017-11-03T04:40:07.575Z,106.43
2017-11-03T04:42:35.052Z,97.57
2017-11-03T04:45:03.291Z,99.30
2017-11-03T04:47:30.756Z,98.20
2017-11-03T04:49:58.238Z,105.20
2017-11-03T04:52:26.469Z,91.10
2017-11-03T04:54:53.943Z,96.00
2017-11-03T04:57:22.919Z,95.57
2017-11-03T04:59:50.388Z,95.67
2017-11-03T05:02:17.863Z,96.17
2017-11-03T05:04:45.322Z,82.60
2017-11-03T05:07:13.567Z,86.57
2017-11-03T05:09:41.061Z,81.90
2017-11-03T05:12:09.288Z,84.93
2017-11-03T05:14:36.759Z,82.00
2017-11-03T05:17:04.219Z,94.13
2017-11-03T05:19:31.680Z,81.57
2017-11-03T05:21:59.155Z,87.70
2017-11-03T05:24:27.388Z,94.23
2017-11-03T05:26:54.835Z,92.90
2017-11-03T05:29:22.319Z,93.53
2017-11-03T05:31:49.784Z,95.93
2017-11-03T05:34:17.264Z,95.97
2017-11-03T05:36:45.492Z,110.93
2017-11-03T05:39:12.978Z,99.27
2017-11-03T05:41:41.210Z,122.57
2017-11-03T05:44:08.675Z,109.80
2017-11-03T05:46:36.154Z,104.23
2017-11-03T05:49:03.628Z,114.00
2017-11-03T05:51:31.887Z,107.03
2017-11-03T05:54:00.131Z,111.40
2017-11-03T05:56:27.603Z,100.13
2017-11-03T05:58:55.084Z,116.90
2017-11-03T06:01:22.558Z,113.40
2017-11-03T06:03:50.799Z,114.27
2017-11-03T06:06:18.279Z,126.00
2017-11-03T06:08:46.524Z,126.67
2017-11-03T06:11:13.992Z,123.83
2017-11-03T06:13:41.471Z,139.60
2017-11-03T06:16:09.707Z,125.20
2017-11-03T06:18:37.174Z,119.13
2017-11-03T06:21:04.655Z,131.73
2017-11-03T06:23:32.889Z,149.77
2017-11-03T06:26:00.372Z,132.80
2017-11-03T06:28:30.295Z,137.53
2017-11-03T06:30:57.775Z,138.20
2017-11-03T06:33:26.003Z,137.63
2017-11-03T06:35:53.483Z,131.43
2017-11-03T06:38:20.963Z,132.00
2017-11-03T06:40:50.185Z,137.10
2017-11-03T06:43:17.645Z,123.67
2017-11-03T06:45:45.128Z,120.07
2017-11-03T06:48:12.594Z,140.40
2017-11-03T06:50:40.075Z,139.93
2017-11-03T06:53:08.324Z,136.03
2017-11-03T06:55:35.827Z,136.97
2017-11-03T06:58:03.296Z,132.37
2017-11-03T07:00:30.753Z,127.63
2017-11-03T07:02:58.231Z,120.87
2017-11-03T07:05:25.703Z,120.60
2017-11-03T07:07:53.183Z,112.17
2017-11-03T07:10:20.659Z,116.80
2017-11-03T07:12:48.148Z,126.33
2017-11-03T07:15:15.636Z,125.80
2017-11-03T07:17:43.095Z,121.93
2017-11-03T07:20:10.596Z,122.67
2017-11-03T07:22:38.060Z,124.37
2017-11-03T07:25:05.527Z,125.23
2017-11-03T07:27:33.008Z,123.60
2017-11-03T07:30:00.498Z,124.77
2017-11-03T07:32:28.735Z,122.47
2017-11-03T07:34:56.208Z,150.77
2017-11-03T07:37:23.701Z,129.50
2017-11-03T07:39:51.955Z,121.03
2017-11-03T07:42:19.428Z,147.27
2017-11-03T07:44:47.676Z,133.43
2017-11-03T07:47:15.168Z,133.93
2017-11-03T07:49:42.651Z,137.07
2017-11-03T07:52:10.116Z,129.23
2017-11-03T07:54:37.612Z,122.67
2017-11-03T07:57:05.083Z,131.20
2017-11-03T07:59:33.316Z,140.87
2017-11-03T08:02:00.799Z,131.00
2017-11-03T08:04:28.260Z,131.90
2017-11-03T08:06:56.494Z,142.23
2017-11-03T08:09:23.994Z,129.23
2017-11-03T08:11:51.464Z,129.23
2017-11-03T08:14:19.724Z,131.30
2017-11-03T08:16:47.210Z,120.80
2017-11-03T08:19:14.688Z,121.60
2017-11-03T08:21:42.178Z,131.70
2017-11-03T08:24:09.675Z,127.37
2017-11-03T08:26:37.909Z,131.53
2017-11-03T08:29:06.155Z,131.00
2017-11-03T08:31:33.654Z,124.93
2017-11-03T08:34:01.120Z,118.30
2017-11-03T08:36:29.343Z,122.87
2017-11-03T08:38:56.836Z,112.83
2017-11-03T08:41:24.315Z,119.03
2017-11-03T08:43:52.569Z,115.77
2017-11-03T08:46:20.059Z,116.70
2017-11-03T08:48:47.558Z,120.20
2017-11-03T08:51:15.052Z,118.13
2017-11-03T08:53:43.272Z,111.90
2017-11-03T08:56:10.759Z,112.17
2017-11-03T08:58:38.261Z,108.37
2017-11-03T09:01:06.501Z,108.50
2017-11-03T09:03:33.999Z,99.77
2017-11-03T09:06:01.467Z,103.40
2017-11-03T09:08:28.951Z,112.57
2017-11-03T09:10:56.431Z,108.10
2017-11-03T09:13:23.924Z,98.37
2017-11-03T09:15:51.399Z,101.50
2017-11-03T09:18:18.867Z,98.07
2017-11-03T09:20:46.339Z,100.87
2017-11-03T09:23:13.819Z,86.40
2017-11-03T09:25:42.061Z,88.60
2017-11-03T09:28:09.542Z,96.87
2017-11-03T09:30:37.015Z,101.50
2017-11-03T09:33:05.270Z,92.13
2017-11-03T09:35:32.724Z,97.17
2017-11-03T09:38:01.711Z,88.80
2017-11-03T09:40:29.198Z,88.07
2017-11-03T09:42:57.452Z,81.60
2017-11-03T09:45:24.914Z,87.00
2017-11-03T09:47:52.395Z,70.33
2017-11-03T09:50:19.877Z,74.73
2017-11-03T09:52:47.363Z,73.73
2017-11-03T09:55:14.824Z,80.93
2017-11-03T09:57:42.302Z,75.77
2017-11-03T10:00:10.551Z,83.57
2017-11-03T10:02:38.027Z,80.40
2017-11-03T10:05:05.491Z,80.90
2017-11-03T10:07:32.968Z,77.20
2017-11-03T10:10:01.195Z,81.83
2017-11-03T10:12:29.030Z,78.60
2017-11-03T10:14:56.508Z,74.70
2017-11-03T10:17:23.992Z,69.03
2017-11-03T10:19:51.491Z,73.37
2017-11-03T10:22:18.961Z,70.37
2017-11-03T10:24:46.429Z,65.30
2017-11-03T10:27:13.919Z,66.43
2017-11-03T10:29:41.383Z,69.57
2017-11-03T10:32:08.862Z,70.23
2017-11-03T10:34:36.352Z,54.93
2017-11-03T10:37:03.811Z,63.77
2017-11-03T10:39:31.306Z,57.30
2017-11-03T10:41:58.770Z,55.77
2017-11-03T10:44:27.027Z,55.17
2017-11-03T10:46:54.495Z,60.20
2017-11-03T10:49:21.982Z,52.83
2017-11-03T10:51:50.237Z,51.63
2017-11-03T10:54:18.486Z,64.23
2017-11-03T10:56:45.968Z,65.70
2017-11-03T10:59:13.428Z,60.00
2017-11-03T11:01:41.675Z,54.33
2017-11-03T11:04:09.131Z,52.00
2017-11-03T11:06:36.600Z,52.33
2017-11-03T11:09:04.082Z,48.30
2017-11-03T11:11:31.551Z,47.17
2017-11-03T11:13:59.035Z,55.77
2017-11-03T11:16:26.576Z,50.10
2017-11-03T11:18:54.062Z,57.40
2017-11-03T11:21:21.528Z,50.07
2017-11-03T11:23:49.007Z,41.20
2017-11-03T11:26:16.517Z,52.53
2017-11-03T11:28:44.022Z,53.23
2017-11-03T11:31:12.283Z,54.30
2017-11-03T11:33:39.759Z,52.63
2017-11-03T11:36:07.988Z,58.07
2017-11-03T11:38:35.469Z,51.40
2017-11-03T11:41:03.725Z,62.27
2017-11-03T11:43:31.204Z,56.70
2017-11-03T11:45:58.676Z,59.77
2017-11-03T11:48:26.927Z,51.93
2017-11-03T11:50:54.400Z,53.73
2017-11-03T11:53:21.880Z,53.20
2017-11-03T11:55:49.343Z,52.13
2017-11-03T11:58:16.827Z,56.60
2017-11-03T12:00:44.316Z,52.90
2017-11-03T12:03:11.791Z,52.53
2017-11-03T12:05:40.023Z,56.30
2017-11-03T12:08:07.516Z,55.87
2017-11-03T12:10:35.011Z,55.43
2017-11-03T12:13:02.484Z,66.77
2017-11-03T12:15:29.967Z,53.63
2017-11-03T12:17:57.436Z,58.23
2017-11-03T12:20:24.931Z,57.90
2017-11-03T12:22:52.401Z,55.83
2017-11-03T12:25:19.885Z,58.63
2017-11-03T12:27:47.359Z,57.40
2017-11-03T12:30:14.839Z,52.30
2017-11-03T12:32:43.099Z,56.97
2017-11-03T12:35:10.555Z,53.20
2017-11-03T12:37:38.059Z,50.67
2017-11-03T12:40:05.525Z,52.87
2017-11-03T12:42:33.008Z,57.33
2017-11-03T12:45:00.483Z,53.90
2017-11-03T12:47:27.951Z,60.67
2017-11-03T12:49:56.197Z,55.10
2017-11-03T12:52:23.673Z,42.10
2017-11-03T12:54:51.154Z,43.07
2017-11-03T12:57:18.634Z,41.17
2017-11-03T12:59:46.133Z,42.03
2017-11-03T13:02:13.603Z,46.27
2017-11-03T13:04:41.109Z,39.17
2017-11-03T13:07:08.631Z,43.53
2017-11-03T13:09:36.935Z,41.87
2017-11-03T13:12:04.427Z,47.93
2017-11-03T13:14:31.908Z,32.70
2017-11-03T13:16:59.388Z,42.03
2017-11-03T13:19:26.903Z,40.87
2017-11-03T13:21:54.367Z,48.00
2017-11-03T13:24:21.857Z,38.73
2017-11-03T13:26:50.244Z,46.70
2017-11-03T13:29:17.727Z,46.27
2017-11-03T13:31:45.206Z,41.33
2017-11-03T13:34:12.695Z,46.63
2017-11-03T13:36:40.950Z,41.30
2017-11-03T13:39:09.201Z,41.03
2017-11-03T13:41:36.683Z,41.13
2017-11-03T13:44:04.160Z,42.00
2017-11-03T13:46:33.071Z,45.83
2017-11-03T13:49:00.587Z,37.33
2017-11-03T13:51:28.050Z,41.87
2017-11-03T13:53:55.527Z,38.10
2017-11-03T13:56:23.003Z,36.93
2017-11-03T13:58:50.475Z,39.67
2017-11-03T14:01:17.956Z,41.63
2017-11-03T14:03:45.419Z,37.93
2017-11-03T14:06:12.915Z,45.50
2017-11-03T14:08:41.161Z,36.20
2017-11-03T14:11:08.615Z,34.87
2017-11-03T14:13:36.111Z,46.00
2017-11-03T14:16:03.576Z,44.87
2017-11-03T14:18:31.039Z,39.03
2017-11-03T14:20:58.516Z,37.20
2017-11-03T14:23:25.987Z,39.77
2017-11-03T14:25:53.477Z,46.67
2017-11-03T14:28:21.709Z,43.80
2017-11-03T14:30:49.179Z,40.80
2017-11-03T14:33:16.658Z,47.47
2017-11-03T14:35:44.925Z,43.73
2017-11-03T14:38:12.387Z,45.30
2017-11-03T14:40:40.643Z,52.73
2017-11-03T14:43:08.123Z,43.03
2017-11-03T14:45:36.392Z,47.43
2017-11-03T14:48:04.627Z,47.50
2017-11-03T14:50:32.094Z,40.47
2017-11-03T14:52:59.579Z,43.97
2017-11-03T14:55:27.816Z,46.60
2017-11-03T14:57:55.312Z,46.20
2017-11-03T15:00:23.547Z,44.37
2017-11-03T15:02:51.018Z,44.37
2017-11-03T15:05:18.502Z,47.20
2017-11-03T15:07:46.739Z,43.17
2017-11-03T15:10:14.224Z,43.60
2017-11-03T15:12:41.695Z,45.73
2017-11-03T15:15:09.953Z,50.10
2017-11-03T15:17:37.447Z,47.43
2017-11-03T15:20:04.931Z,47.97
2017-11-03T15:22:32.399Z,46.03
2017-11-03T15:24:59.882Z,40.97
2017-11-03T15:27:27.344Z,48.80
2017-11-03T15:29:55.606Z,45.80
2017-11-03T15:32:23.092Z,48.00
2017-11-03T15:34:51.339Z,45.73
2017-11-03T15:37:18.819Z,46.23
2017-11-03T15:39:47.056Z,46.53
2017-11-03T15:42:14.543Z,50.80
2017-11-03T15:44:42.783Z,42.77
2017-11-03T15:47:10.280Z,46.70
2017-11-03T15:49:38.531Z,47.13
2017-11-03T15:52:06.017Z,53.40
2017-11-03T15:54:34.263Z,49.60
2017-11-03T15:57:03.234Z,50.20
2017-11-03T15:59:30.716Z,53.70
2017-11-03T16:01:58.214Z,57.37
2017-11-03T16:04:25.698Z,60.20
2017-11-03T16:06:53.165Z,56.97
2017-11-03T16:09:20.651Z,51.83
2017-11-03T16:11:48.119Z,68.60
2017-11-03T16:14:16.359Z,56.83
2017-11-03T16:16:43.835Z,56.53
2017-11-03T16:19:11.299Z,57.90
2017-11-03T16:21:39.523Z,69.17
2017-11-03T16:24:07.003Z,60.40
2017-11-03T16:26:34.478Z,72.83
2017-11-03T16:29:01.966Z,60.73
2017-11-03T16:31:29.439Z,68.60
2017-11-03T16:33:56.925Z,66.73
2017-11-03T16:36:24.401Z,71.27
2017-11-03T16:38:51.880Z,59.43
2017-11-03T16:41:20.107Z,61.33
2017-11-03T16:43:47.582Z,59.63
2017-11-03T16:46:15.049Z,61.23
2017-11-03T16:48:42.537Z,68.50
2017-11-03T16:51:09.996Z,59.03
2017-11-03T16:53:37.475Z,59.70
2017-11-03T16:56:04.940Z,57.30
2017-11-03T16:58:32.480Z,58.60
2017-11-03T17:00:59.955Z,72.13
2017-11-03T17:03:27.411Z,63.47
2017-11-03T17:05:54.886Z,61.23
2017-11-03T17:08:22.371Z,62.80
2017-11-03T17:10:50.600Z,60.60
2017-11-03T17:13:18.091Z,70.10
2017-11-03T17:15:45.556Z,73.43
2017-11-03T17:18:13.800Z,65.60
2017-11-03T17:20:41.292Z,72.30
2017-11-03T17:23:09.536Z,72.67
2017-11-03T17:25:37.021Z,67.23
2017-11-03T17:28:04.494Z,64.90
2017-11-03T17:30:32.713Z,57.70
2017-11-03T17:33:00.197Z,69.90
2017-11-03T17:35:27.654Z,55.37
2017-11-03T17:37:56.627Z,60.20
2017-11-03T17:40:24.104Z,53.67
2017-11-03T17:42:51.569Z,58.57
2017-11-03T17:45:19.051Z,58.90
2017-11-03T17:47:46.511Z,65.87
2017-11-03T17:50:13.974Z,63.90
2017-11-03T17:52:41.471Z,66.07
2017-11-03T17:55:08.937Z,59.20
2017-11-03T17:57:36.408Z,65.40
2017-11-03T18:00:04.673Z,57.37
2017-11-03T18:02:33.634Z,64.40
2017-11-03T18:05:01.109Z,59.43
2017-11-03T18:07:28.576Z,62.20
2017-11-03T18:09:56.072Z,57.87
2017-11-03T18:12:23.559Z,60.90
2017-11-03T18:14:51.024Z,71.37
2017-11-03T18:17:18.491Z,71.87
2017-11-03T18:19:45.980Z,82.73
2017-11-03T18:22:14.203Z,68.53
2017-11-03T18:24:41.663Z,82.13
2017-11-03T18:27:09.147Z,81.93
2017-11-03T18:29:36.613Z,71.43
2017-11-03T18:32:04.082Z,71.80
2017-11-03T18:34:32.312Z,65.23
2017-11-03T18:36:59.805Z,67.27
2017-11-03T18:39:28.048Z,71.13
2017-11-03T18:41:55.533Z,67.63
2017-11-03T18:44:23.009Z,77.43
2017-11-03T18:46:51.255Z,67.40
2017-11-03T18:49:19.509Z,70.30
2017-11-03T18:51:46.986Z,62.07
2017-11-03T18:54:14.473Z,56.53
2017-11-03T18:56:41.944Z,70.00
2017-11-03T18:59:09.413Z,60.77
2017-11-03T19:01:36.898Z,69.47
2017-11-03T19:04:04.374Z,57.13
2017-11-03T19:06:32.609Z,71.27
2017-11-03T19:09:00.088Z,70.13
2017-11-03T19:11:27.541Z,68.07
2017-11-03T19:13:55.004Z,72.90
2017-11-03T19:16:22.493Z,68.23
2017-11-03T19:18:50.725Z,66.17
2017-11-03T19:21:18.210Z,62.10
2017-11-03T19:23:46.443Z,70.60
2017-11-03T19:26:13.919Z,67.30
2017-11-03T19:28:41.399Z,63.63
2017-11-03T19:31:09.648Z,71.30
2017-11-03T19:33:37.150Z,63.80
2017-11-03T19:36:05.403Z,74.37
2017-11-03T19:38:33.655Z,74.10
2017-11-03T19:41:01.146Z,72.30
2017-11-03T19:43:29.371Z,75.20
2017-11-03T19:45:56.870Z,70.30
2017-11-03T19:48:25.124Z,76.23
2017-11-03T19:50:52.606Z,70.10
2017-11-03T19:53:20.852Z,93.53
2017-11-03T19:55:48.321Z,77.03
2017-11-03T19:58:15.828Z,73.90
2017-11-03T20:00:43.300Z,71.27
2017-11-03T20:03:10.766Z,71.30
2017-11-03T20:05:38.251Z,68.33
2017-11-03T20:08:05.729Z,65.23
2017-11-03T20:10:33.969Z,75.00
2017-11-03T20:13:01.467Z,86.80
2017-11-03T20:15:28.948Z,77.90
2017-11-03T20:17:57.284Z,81.10
2017-11-03T20:20:25.600Z,97.90
2017-11-03T20:22:53.097Z,70.93
2017-11-03T20:25:20.572Z,71.23
2017-11-03T20:27:48.837Z,54.30
2017-11-03T20:30:17.080Z,63.30
2017-11-03T20:32:44.549Z,50.83
2017-11-03T20:35:12.049Z,65.73
2017-11-03T20:37:40.285Z,62.27
2017-11-03T20:40:08.650Z,78.13
2017-11-03T20:42:36.144Z,75.70
2017-11-03T20:45:04.072Z,85.27
2017-11-03T20:47:31.560Z,101.83
2017-11-03T20:49:59.067Z,88.03
2017-11-03T20:52:26.544Z,89.80
2017-11-03T20:54:54.038Z,88.80
2017-11-03T20:57:21.500Z,79.20
2017-11-03T20:59:49.741Z,75.83
2017-11-03T21:02:17.234Z,77.67
2017-11-03T21:04:45.476Z,74.97
2017-11-03T21:07:12.944Z,79.90
2017-11-03T21:09:40.429Z,77.27
2017-11-03T21:12:08.654Z,67.50
2017-11-03T21:14:36.135Z,68.50
2017-11-03T21:17:03.615Z,64.80
2017-11-03T21:19:31.863Z,61.00
2017-11-03T21:21:59.348Z,59.23
2017-11-03T21:24:27.572Z,63.37
2017-11-03T21:26:55.073Z,67.10
2017-11-03T21:29:23.308Z,68.90
2017-11-03T21:31:50.775Z,62.73
2017-11-03T21:34:18.258Z,64.33
2017-11-03T21:36:46.498Z,67.20
2017-11-03T21:39:13.983Z,63.93
2017-11-03T21:41:41.458Z,46.00
2017-11-03T21:44:08.928Z,54.57
2017-11-03T21:46:36.419Z,65.27
2017-11-03T21:49:03.885Z,73.03
2017-11-03T21:51:31.380Z,63.37
2017-11-03T21:53:59.684Z,63.70
2017-11-03T21:56:27.143Z,56.30
2017-11-03T21:58:54.644Z,70.60
2017-11-03T22:01:23.631Z,66.47
2017-11-03T22:03:51.101Z,54.73
2017-11-03T22:06:18.587Z,60.67
2017-11-03T22:08:46.078Z,65.37
2017-11-03T22:11:13.555Z,61.83
2017-11-03T22:13:41.038Z,58.13
2017-11-03T22:16:09.267Z,56.47
2017-11-03T22:18:36.755Z,56.00
2017-11-03T22:21:05.012Z,54.53
2017-11-03T22:23:32.479Z,52.83
2017-11-03T22:25:59.968Z,59.57
2017-11-03T22:28:28.196Z,52.03
2017-11-03T22:30:55.674Z,67.37
2017-11-03T22:33:23.149Z,60.23
2017-11-03T22:35:51.379Z,55.23
2017-11-03T22:38:18.864Z,52.10
2017-11-03T22:40:47.096Z,46.70
2017-11-03T22:43:14.575Z,48.77
2017-11-03T22:45:42.044Z,49.93
2017-11-03T22:48:09.524Z,50.53
2017-11-03T22:50:37.788Z,49.77
2017-11-03T22:53:05.264Z,59.07
2017-11-03T22:55:33.501Z,57.00
2017-11-03T22:58:00.967Z,56.70
2017-11-03T23:00:28.435Z,48.97
2017-11-03T23:02:56.687Z,49.93
2017-11-03T23:05:24.151Z,43.60
2017-11-03T23:07:51.620Z,52.43
2017-11-03T23:10:19.873Z,51.13
2017-11-03T23:12:47.363Z,45.70
2017-11-03T23:15:15.607Z,49.73
2017-11-03T23:17:43.080Z,50.93
2017-11-03T23:20:10.560Z,47.90
2017-11-03T23:22:38.060Z,54.50
2017-11-03T23:25:05.531Z,51.40
2017-11-03T23:27:33.016Z,50.47
2017-11-03T23:30:00.484Z,50.13
2017-11-03T23:32:28.739Z,46.23
2017-11-03T23:34:56.237Z,56.30
2017-11-03T23:37:23.696Z,52.77
2017-11-03T23:39:51.175Z,52.90
2017-11-03T23:42:18.643Z,63.47
2017-11-03T23:44:46.131Z,59.80
2017-11-03T23:47:14.364Z,51.87
2017-11-03T23:49:41.844Z,50.20
2017-11-03T23:52:09.311Z,61.73
2017-11-03T23:54:36.791Z,42.83
2017-11-03T23:57:04.276Z,44.20
2017-11-03T23:59:31.748Z,42.77
